• Join FlightAware (Why Join?)
  • Login
  • US Flag 
Rudolph Flight #1: Arrived! 
12:22AM EST


 

Airport Tracker/Info


-or-


 

Live Flight TrackerFlight Track Log ✈ SWA2058 ✈ 27-Apr-2013 ✈ KLAS - KAUS

Flight Track Log - Related Links

Times and Time Zones

All times are in EDT time to prevent confusion due to time zone crossing. See the SWA2058 flight status page for this flight to view local times or setup timezone preferences in your user account.

Time Position Orientation Groundspeed Altitude Reporting Facility
EDT Latitude Longitude Course Direction KTS MPH feet Rate Location/Type
09:24PM 36.0758 -115.1764 263° West 187 215 3,300  Level Los Angeles Center
09:25PM 36.0681 -115.2506 263° West 237 273 5,200 2,100 Climbing Los Angeles Center
09:26PM 36.0119 -115.2822 205° Southwest 273 314 7,400 2,760 Climbing Los Angeles Center
09:27PM 35.9350 -115.2744 175° South 294 338 10,500 2,340 Climbing Los Angeles Center
09:28PM 35.9236 -115.1647 97° East 326 375 12,700 2,700 Climbing Los Angeles Center
09:29PM 35.9242 -115.0139 90° East 362 417 16,600 3,240 Climbing Los Angeles Center
09:30PM 35.9239 -114.8883 90° East 367 422 19,400 2,580 Climbing Los Angeles Center
09:31PM 35.9244 -114.7569 90° East 378 435 22,000 2,340 Climbing Los Angeles Center
09:32PM 35.9244 -114.6197 90° East 393 452 24,200 2,100 Climbing Los Angeles Center
09:33PM 35.9242 -114.4492 90° East 416 479 26,400 1,920 Climbing Los Angeles Center
09:34PM 35.9247 -114.3044 90° East 422 486 28,200 1,620 Climbing Los Angeles Center
09:35PM 35.9236 -114.1547 90° East 434 499 29,800 1,320 Climbing Los Angeles Center
09:36PM 35.9233 -114.0022 90° East 444 511 31,000 600 Climbing Los Angeles Center
09:37PM 35.9142 -113.8514 94° East 445 512 31,100 600 Climbing Los Angeles Center
09:38PM 35.8819 -113.7014 105° East 452 520 32,300 1,200 Climbing Los Angeles Center
09:39PM 35.8544 -113.5639 104° East 451 519 33,600 1,320 Climbing Los Angeles Center
09:40PM 35.8169 -113.3844 104° East 454 522 35,100 1,560 Climbing Los Angeles Center
09:41PM 35.7861 -113.2383 105° East 446 513 36,800 900 Climbing Los Angeles Center
09:42PM 35.7550 -113.0892 104° East 439 505 37,000 60 Climbing Los Angeles Center
09:43PM 35.7219 -112.9478 106° East 441 507 37,000  Level Los Angeles Center
09:44PM 35.6792 -112.8031 110° East 443 510 37,100  Climbing Los Angeles Center
09:45PM 35.6364 -112.6625 110° East 442 509 37,100 -60 Level Los Angeles Center
09:46PM 35.5925 -112.5164 110° East 451 519 37,000 -60 Descending Los Angeles Center
09:47PM 35.5489 -112.3722 110° East 451 519 37,000  Level Los Angeles Center
09:48PM 35.5133 -112.2564 111° Southeast 455 524 37,000  Level Albuquerque Center
09:49PM 35.4617 -112.1158 114° Southeast 454 522 37,000  Level Albuquerque Center
09:50PM 35.4036 -111.9792 117° Southeast 453 521 37,000  Level Albuquerque Center
09:51PM 35.3356 -111.8142 117° Southeast 454 522 37,000  Level Albuquerque Center
09:52PM 35.2842 -111.6900 117° Southeast 457 526 37,000  Level Albuquerque Center
09:53PM 35.2253 -111.5519 118° Southeast 458 527 37,000  Level Albuquerque Center
09:54PM 35.1678 -111.4136 117° Southeast 457 526 37,000  Level Albuquerque Center
09:55PM 35.1092 -111.2756 117° Southeast 457 526 37,000  Level Albuquerque Center
09:56PM 35.0511 -111.1372 117° Southeast 457 526 37,000  Level Albuquerque Center
09:57PM 34.9925 -111.0000 118° Southeast 456 525 37,000  Level Albuquerque Center
09:58PM 34.9336 -110.8622 118° Southeast 457 526 37,000  Level Albuquerque Center
09:59PM 34.8694 -110.7117 117° Southeast 453 521 37,100  Climbing Albuquerque Center
10:00PM 34.8256 -110.5539 109° East 447 514 37,100  Level Albuquerque Center
10:01PM 34.7892 -110.4178 108° East 444 511 37,100  Level Albuquerque Center
10:02PM 34.7500 -110.2808 109° East 445 512 37,100  Level Albuquerque Center
10:03PM 34.7053 -110.1222 109° East 447 514 37,100 -60 Level Albuquerque Center
10:04PM 34.6636 -109.9811 110° East 455 524 37,000  Descending Albuquerque Center
10:05PM 34.6247 -109.8433 109° East 454 522 37,100  Climbing Albuquerque Center
10:06PM 34.5781 -109.6831 109° East 453 521 37,100 -60 Level Albuquerque Center
10:07PM 34.5392 -109.5464 109° East 451 519 37,000 -60 Descending Albuquerque Center
10:08PM 34.4989 -109.4078 109° East 452 520 37,000  Level Albuquerque Center
10:09PM 34.4531 -109.2506 109° East 449 517 37,100  Climbing Albuquerque Center
10:11PM 34.4125 -109.1156 110° East 447 514 37,100  Level Albuquerque Center
10:12PM 34.3728 -108.9794 109° East 447 514 37,100  Level Albuquerque Center
10:13PM 34.3258 -108.8217 110° East 447 514 37,100 -60 Level Albuquerque Center
10:14PM 34.2861 -108.6933 111° Southeast 449 517 37,000 -60 Descending Albuquerque Center
10:15PM 34.2431 -108.5494 110° East 455 524 37,000  Level Albuquerque Center
10:16PM 34.1997 -108.4061 110° East 457 526 37,000  Level Albuquerque Center
10:17PM 34.1556 -108.2617 110° East 459 528 37,000  Level Albuquerque Center
10:18PM 34.1050 -108.1000 111° Southeast 463 533 37,000  Level Albuquerque Center
10:19PM 34.0594 -107.9547 111° Southeast 465 535 37,000  Level Albuquerque Center
10:20PM 34.0150 -107.8092 110° East 464 534 37,000  Level Albuquerque Center
10:21PM 33.9694 -107.6614 110° East 466 536 37,000  Level Albuquerque Center
10:22PM 33.9239 -107.5167 111° Southeast 465 535 37,000  Level Albuquerque Center
10:23PM 33.8783 -107.3700 110° East 466 536 37,000  Level Albuquerque Center
10:24PM 33.8333 -107.2253 110° East 464 534 37,000  Level Albuquerque Center
10:25PM 33.7864 -107.0792 111° Southeast 465 535 37,000  Level Albuquerque Center
10:26PM 33.7403 -106.9344 111° Southeast 465 535 37,000  Level Albuquerque Center
10:27PM 33.6933 -106.7858 111° Southeast 468 539 37,100 600 Climbing Albuquerque Center
10:28PM 33.6458 -106.6361 111° Southeast 475 547 38,300 900 Climbing Albuquerque Center
10:29PM 33.5972 -106.4869 111° Southeast 477 549 39,000 300 Climbing Albuquerque Center
10:30PM 33.5406 -106.3111 111° Southeast 474 545 39,000  Level Albuquerque Center
10:31PM 33.4933 -106.1636 111° Southeast 473 544 39,000  Level Albuquerque Center
10:32PM 33.4453 -106.0183 112° Southeast 471 542 39,000  Level Albuquerque Center
10:33PM 33.3969 -105.8731 112° Southeast 470 541 39,000  Level Albuquerque Center
10:34PM 33.3489 -105.7269 111° Southeast 471 542 39,000  Level Albuquerque Center
10:35PM 33.2969 -105.5697 112° Southeast 475 547 39,100  Climbing Albuquerque Center
10:36PM 33.2469 -105.4233 112° Southeast 478 550 39,100  Level Albuquerque Center
10:37PM 33.1989 -105.2767 111° Southeast 477 549 39,100  Level Albuquerque Center
10:38PM 33.1492 -105.1306 112° Southeast 478 550 39,100  Level Albuquerque Center
10:39PM 33.0961 -104.9714 112° Southeast 482 555 39,100  Level Albuquerque Center
10:40PM 33.0461 -104.8258 112° Southeast 480 552 39,100  Level Albuquerque Center
10:41PM 32.9972 -104.6792 112° Southeast 480 552 39,100  Level Albuquerque Center
10:42PM 32.9472 -104.5331 112° Southeast 481 554 39,100 -60 Level Albuquerque Center
10:43PM 32.8931 -104.3758 112° Southeast 481 554 39,000  Descending Albuquerque Center
10:44PM 32.8436 -104.2286 112° Southeast 482 555 39,100  Climbing Albuquerque Center
10:45PM 32.7925 -104.0822 113° Southeast 482 555 39,000 -60 Descending Albuquerque Center
10:46PM 32.7411 -103.9356 113° Southeast 482 555 39,000  Level Albuquerque Center
10:47PM 32.6903 -103.7889 112° Southeast 482 555 39,100  Climbing Albuquerque Center
10:48PM 32.6417 -103.6519 113° Southeast 477 549 39,100 -60 Level Albuquerque Center
10:49PM 32.5919 -103.5047 112° Southeast 480 552 39,000 -60 Descending Albuquerque Center
10:50PM 32.5389 -103.3597 113° Southeast 481 554 39,000 60 Level Albuquerque Center
10:50PM 32.5156 -103.3008 115° Southeast 481 554 39,100 60 Climbing Fort Worth Center
10:51PM 32.4639 -103.1572 113° Southeast 481 554 39,100  Level Fort Worth Center
10:52PM 32.4100 -103.0086 113° Southeast 476 548 39,100  Level Fort Worth Center
10:53PM 32.3578 -102.8653 113° Southeast 476 548 39,100  Level Fort Worth Center
10:54PM 32.3056 -102.7222 113° Southeast 476 548 39,100 -60 Level Fort Worth Center
10:55PM 32.2533 -102.5767 113° Southeast 476 548 39,000  Descending Fort Worth Center
10:56PM 32.1986 -102.4311 114° Southeast 476 548 39,100  Climbing Fort Worth Center
10:57PM 32.1422 -102.2711 113° Southeast 476 548 39,000 -60 Descending Fort Worth Center
10:58PM 32.0953 -102.1361 112° Southeast 476 548 39,000  Level Fort Worth Center
10:59PM 32.0442 -101.9964 113° Southeast 476 548 39,000  Level Fort Worth Center
11:00PM 31.9889 -101.8489 114° Southeast 481 554 39,000  Level Fort Worth Center
11:01PM 31.9356 -101.6994 113° Southeast 487 560 39,000  Level Fort Worth Center
11:02PM 31.8819 -101.5578 114° Southeast 482 555 39,000  Level Fort Worth Center
11:03PM 31.8242 -101.4058 114° Southeast 488 562 39,000  Level Fort Worth Center
11:04PM 31.7703 -101.2619 114° Southeast 488 562 39,000  Level Fort Worth Center
11:07PM 31.6361 -100.9161 114° Southeast 484 557 39,000  Level Houston Center
11:08PM 31.5736 -100.7556 115° Southeast 484 557 39,000  Level Houston Center
11:09PM 31.5181 -100.6119 114° Southeast 483 556 39,000  Level Houston Center
11:10PM 31.4639 -100.4703 114° Southeast 479 551 39,000  Level Houston Center
11:11PM 31.4083 -100.3297 115° Southeast 477 549 39,000  Level Houston Center
11:12PM 31.3533 -100.1872 114° Southeast 478 550 39,000  Level Houston Center
11:13PM 31.2978 -100.0442 114° Southeast 483 556 39,000  Level Houston Center
11:14PM 31.2536 -99.8922 109° East 493 567 39,000 -600 Level Houston Center
11:15PM 31.2106 -99.7400 108° East 493 567 37,900 -1,860 Descending Houston Center
11:16PM 31.1678 -99.5908 108° East 488 562 35,300 -2,820 Descending Houston Center
11:17PM 31.1233 -99.4400 109° East 491 565 32,300 -2,760 Descending Houston Center
11:18PM 31.0800 -99.2936 109° East 479 551 29,800 -2,340 Descending Houston Center
11:19PM 31.0411 -99.1569 108° East 479 551 27,700 -2,160 Descending Houston Center
11:20PM 31.0008 -99.0142 108° East 466 536 25,500 -2,280 Descending Houston Center
11:21PM 30.9583 -98.8764 110° East 452 520 23,200 -2,220 Descending Houston Center
11:22PM 30.9189 -98.7417 109° East 438 504 21,100 -2,040 Descending Houston Center
11:23PM 30.8789 -98.6100 109° East 430 495 19,100 -2,040 Descending Houston Center
11:24PM 30.8411 -98.4814 109° East 420 483 17,000 -2,160 Descending Houston Center
11:25PM 30.8053 -98.3594 109° East 401 461 14,800 -2,160 Descending Houston Center
11:26PM 30.7689 -98.2406 110° East 389 448 12,700 -2,040 Descending Houston Center
11:27PM 30.7356 -98.1261 109° East 375 432 10,700 -1,440 Descending Houston Center
11:28PM 30.6886 -98.0278 119° Southeast 349 402 9,900 -600 Descending Houston Center
11:29PM 30.6344 -97.9589 132° Southeast 292 336 9,600 -780 Descending Houston Center
11:30PM 30.5858 -97.8978 133° Southeast 263 303 8,400 -1,140 Descending Houston Center
11:31PM 30.5397 -97.8367 131° Southeast 252 290 7,400 -1,020 Descending Houston Center
11:32PM 30.4944 -97.7794 133° Southeast 244 281 6,400 -720 Descending Houston Center
11:33PM 30.4525 -97.7264 133° Southeast 228 262 6,000 -240 Descending Houston Center
11:34PM 30.4028 -97.6836 143° Southeast 236 272 6,000  Level Houston Center
11:35PM 30.3864 -97.7450 253° West 245 282 6,000  Level Houston Center
11:36PM 30.4514 -97.7544 353° North 237 273 6,000 -600 Level Houston Center
11:37PM 30.5167 -97.7558 359° North 233 268 4,900 -1,020 Descending Houston Center
11:38PM 30.5819 -97.7586 358° North 233 268 4,000 -660 Descending Houston Center
11:39PM 30.6139 -97.7117 52° Northeast 227 261 3,600 -780 Descending Houston Center
11:40PM 30.5597 -97.6889 160° South 223 257 2,500 -600 Descending Houston Center
11:41PM 30.4981 -97.6878 179° South 222 255 2,500  Level Houston Center
11:42PM 30.4364 -97.6853 178° South 221 254 2,500  Level Houston Center
11:43PM 30.3806 -97.6836 179° South 210 242 2,500  Level Houston Center
11:44PM 30.3356 -97.6817 178° South 178 205 2,500 -240 Level Houston Center
11:45PM 30.2911 -97.6806 179° South 166 191 2,100 -600 Descending Houston Center
11:46PM 30.2525 -97.6797 179° South 151 174 1,300 -600 Descending Houston Center
11:47PM 30.2136 -97.6797 180° South 145 167 900 -420 Descending Houston Center